FLKK

Kenneth Kaunda International Airport

Airport
ICAO code
FLKK
IATA Code
LUN
Summary
ICAO Region
AFI
ICAO Territory
Location

Lusaka, Lusaka Province

Serving
Lusaka
Elevation
3779 ft
Coordinates
15° 19' 43" S , 28° 26' 46" E
KCC
Metar
FLKK 140000Z 17002KT CAVOK 09/02 Q1025 NOSIG

Kenneth Kaunda International Airport is an international airport in Lusaka, Zambia.

Climatology

Humid subtropical climate (Köppen climate classification Cwa)

Airport map

Aerial View

SKYbrary Partners:

Safety knowledge contributed by: